Terminal Aerodrome Forecast
Issued by NWS

Home | Current Version | Previous Version | Graphics & Text | Print | Product List | Glossary On
Versions: 1 2 3 4 5 6 7 8 9 10 11 12 13 14 15 16 17 18 19 20 21 22 23 24
000
FTUS43 KBIS 181100
TAFMOT
TAF
KMOT 181120Z 1812/1912 12008KT P6SM SKC
     FM181800 22015KT P6SM SCT090
     FM182100 25018G26KT P6SM BKN070
     FM190000 28018G26KT P6SM OVC060
     FM190200 31018G26KT P6SM OVC050=

USA.gov is the U.S. government's official web portal to all federal, state and local government web resources and services.